createdAt,value
2023-02-15T00:01:43.207Z,17.70
2023-02-15T00:04:11.723Z,14.83
2023-02-15T00:06:39.167Z,19.40
2023-02-15T00:09:06.673Z,19.37
2023-02-15T00:11:50.571Z,17.03
2023-02-15T00:14:22.214Z,15.80
2023-02-15T00:16:51.022Z,13.10
2023-02-15T00:19:20.347Z,15.03
2023-02-15T00:21:48.217Z,17.27
2023-02-15T00:24:18.441Z,13.73
2023-02-15T00:26:46.962Z,20.00
2023-02-15T00:29:16.082Z,15.57
2023-02-15T00:31:45.383Z,10.97
2023-02-15T00:34:16.206Z,16.57
2023-02-15T00:36:44.478Z,16.90
2023-02-15T00:39:12.646Z,12.70
2023-02-15T00:41:40.450Z,17.27
2023-02-15T00:44:08.632Z,12.70
2023-02-15T00:46:36.402Z,15.07
2023-02-15T00:49:06.114Z,15.73
2023-02-15T00:51:34.449Z,13.13
2023-02-15T00:54:02.064Z,15.10
2023-02-15T00:56:31.768Z,12.23
2023-02-15T00:59:00.563Z,17.27
2023-02-15T01:01:28.970Z,22.30
2023-02-15T01:03:56.734Z,17.20
2023-02-15T01:06:26.212Z,13.13
2023-02-15T01:08:53.715Z,12.97
2023-02-15T01:11:23.669Z,17.00
2023-02-15T01:13:53.378Z,13.43
2023-02-15T01:16:22.158Z,15.20
2023-02-15T01:18:58.780Z,10.27
2023-02-15T01:21:37.138Z,15.77
2023-02-15T01:24:09.126Z,13.00
2023-02-15T01:26:40.673Z,12.30
2023-02-15T01:29:11.740Z,12.80
2023-02-15T01:31:40.238Z,15.63
2023-02-15T01:34:15.647Z,15.97
2023-02-15T01:36:44.488Z,12.43
2023-02-15T01:39:13.227Z,13.80
2023-02-15T01:41:41.477Z,14.47
2023-02-15T01:44:42.271Z,15.00
2023-02-15T01:47:12.227Z,14.33
2023-02-15T01:49:42.321Z,10.67
2023-02-15T01:52:13.752Z,12.67
2023-02-15T01:54:43.154Z,13.47
2023-02-15T01:57:14.443Z,14.10
2023-02-15T01:59:44.888Z,14.10
2023-02-15T02:02:15.460Z,16.93
2023-02-15T02:04:49.388Z,11.93
2023-02-15T02:07:22.809Z,10.23
2023-02-15T02:09:50.573Z,11.90
2023-02-15T02:12:19.783Z,16.20
2023-02-15T02:14:49.262Z,13.07
2023-02-15T02:17:23.870Z,12.10
2023-02-15T02:20:21.602Z,11.83
2023-02-15T02:23:09.386Z,13.10
2023-02-15T02:26:05.650Z,18.97
2023-02-15T02:28:52.406Z,20.70
2023-02-15T02:31:37.823Z,16.50
2023-02-15T02:34:15.092Z,13.07
2023-02-15T02:36:51.334Z,12.97
2023-02-15T02:39:31.979Z,12.33
2023-02-15T02:42:06.830Z,17.90
2023-02-15T02:44:44.762Z,11.93
2023-02-15T02:47:17.841Z,10.07
2023-02-15T02:49:46.817Z,14.63
2023-02-15T02:52:36.697Z,10.53
2023-02-15T02:55:07.857Z,13.63
2023-02-15T02:57:36.624Z,14.60
2023-02-15T03:00:09.434Z,15.00
2023-02-15T03:02:42.754Z,13.43
2023-02-15T03:05:18.136Z,10.47
2023-02-15T03:07:51.959Z,13.73
2023-02-15T03:10:22.661Z,13.03
2023-02-15T03:12:53.629Z,12.10
2023-02-15T03:15:23.239Z,13.77
2023-02-15T03:17:57.598Z,14.30
2023-02-15T03:20:30.854Z,13.80
2023-02-15T03:23:06.095Z,12.10
2023-02-15T03:25:38.922Z,11.20
2023-02-15T03:28:09.843Z,15.83
2023-02-15T03:30:39.889Z,16.17
2023-02-15T03:33:09.940Z,14.60
2023-02-15T03:35:45.743Z,17.73
2023-02-15T03:38:18.417Z,14.93
2023-02-15T03:41:08.772Z,16.77
2023-02-15T03:43:42.735Z,17.50
2023-02-15T03:46:17.241Z,20.97
2023-02-15T03:48:49.739Z,14.40
2023-02-15T03:51:36.149Z,13.80
2023-02-15T03:54:06.094Z,18.17
2023-02-15T03:56:35.887Z,15.27
2023-02-15T03:59:23.324Z,21.77
2023-02-15T04:02:06.871Z,17.10
2023-02-15T04:04:37.967Z,13.73
2023-02-15T04:07:09.364Z,16.17
2023-02-15T04:09:54.978Z,15.90
2023-02-15T04:12:22.535Z,16.27
2023-02-15T04:15:07.881Z,18.40
2023-02-15T04:17:35.529Z,15.57
2023-02-15T04:20:20.613Z,14.17
2023-02-15T04:23:07.360Z,13.70
2023-02-15T04:25:34.886Z,14.87
2023-02-15T04:28:02.403Z,11.40
2023-02-15T04:30:29.914Z,21.93
2023-02-15T04:32:58.018Z,15.93
2023-02-15T04:35:26.562Z,16.70
2023-02-15T04:37:56.680Z,15.60
2023-02-15T04:40:24.203Z,15.30
2023-02-15T04:42:51.675Z,14.63
2023-02-15T04:45:19.756Z,16.13
2023-02-15T04:47:47.236Z,16.90
2023-02-15T04:50:14.835Z,14.77
2023-02-15T04:52:42.344Z,15.53
2023-02-15T04:55:11.173Z,14.30
2023-02-15T04:57:38.690Z,19.33
2023-02-15T05:00:07.403Z,13.17
2023-02-15T05:02:34.944Z,14.50
2023-02-15T05:05:02.442Z,17.50
2023-02-15T05:07:29.918Z,11.93
2023-02-15T05:09:57.384Z,12.93
2023-02-15T05:12:26.206Z,13.57
2023-02-15T05:14:53.807Z,13.50
2023-02-15T05:17:21.368Z,12.27
2023-02-15T05:19:48.810Z,18.60
2023-02-15T05:22:16.251Z,13.23
2023-02-15T05:25:01.138Z,16.93
2023-02-15T05:27:47.961Z,13.33
2023-02-15T05:30:15.966Z,15.43
2023-02-15T05:32:43.637Z,10.60
2023-02-15T05:35:15.705Z,14.70
2023-02-15T05:37:43.526Z,12.47
2023-02-15T05:40:12.136Z,18.20
2023-02-15T05:42:40.905Z,12.20
2023-02-15T05:45:08.813Z,10.90
2023-02-15T05:47:36.302Z,11.90
2023-02-15T05:50:03.969Z,11.20
2023-02-15T05:52:31.473Z,14.43
2023-02-15T05:54:59.972Z,12.67
2023-02-15T05:57:27.530Z,11.70
2023-02-15T05:59:56.307Z,10.27
2023-02-15T06:02:23.868Z,13.17
2023-02-15T06:04:51.361Z,10.40
2023-02-15T06:07:18.843Z,11.20
2023-02-15T06:09:46.326Z,13.27
2023-02-15T06:12:13.778Z,13.87
2023-02-15T06:14:41.218Z,12.47
2023-02-15T06:17:10.143Z,16.40
2023-02-15T06:19:37.567Z,11.63
2023-02-15T06:22:05.060Z,14.73
2023-02-15T06:24:32.520Z,15.60
2023-02-15T06:27:00.097Z,14.50
2023-02-15T06:29:27.594Z,17.93
2023-02-15T06:31:55.102Z,13.23
2023-02-15T06:34:24.098Z,23.07
2023-02-15T06:36:51.580Z,11.87
2023-02-15T06:39:19.105Z,9.60
2023-02-15T06:41:46.572Z,15.37
2023-02-15T06:44:14.000Z,11.23
2023-02-15T06:46:41.612Z,10.13
2023-02-15T06:49:09.118Z,14.47
2023-02-15T06:51:38.922Z,12.00
2023-02-15T06:54:06.793Z,12.43
2023-02-15T06:56:34.345Z,14.23
2023-02-15T06:59:01.818Z,12.93
2023-02-15T07:01:29.374Z,11.53
2023-02-15T07:03:56.842Z,12.27
2023-02-15T07:06:24.418Z,14.90
2023-02-15T07:08:53.164Z,16.13
2023-02-15T07:11:38.632Z,10.10
2023-02-15T07:14:06.068Z,12.63
2023-02-15T07:16:33.703Z,12.07
2023-02-15T07:19:01.148Z,14.80
2023-02-15T07:21:28.668Z,12.93
2023-02-15T07:23:59.433Z,13.83
2023-02-15T07:26:27.281Z,15.10
2023-02-15T07:28:54.987Z,14.17
2023-02-15T07:31:22.599Z,16.07
2023-02-15T07:33:50.122Z,17.90
2023-02-15T07:36:17.721Z,14.20
2023-02-15T07:38:45.734Z,15.43
2023-02-15T07:41:16.656Z,11.57
2023-02-15T07:43:47.484Z,13.37
2023-02-15T07:46:17.676Z,20.13
2023-02-15T07:48:45.913Z,15.50
2023-02-15T07:51:15.307Z,19.43
2023-02-15T07:53:43.351Z,16.73
2023-02-15T07:56:12.928Z,12.17
2023-02-15T07:58:53.964Z,15.60
2023-02-15T08:01:23.822Z,13.10
2023-02-15T08:03:52.268Z,16.60
2023-02-15T08:06:20.208Z,12.60
2023-02-15T08:08:47.727Z,16.83
2023-02-15T08:11:37.361Z,17.80
2023-02-15T08:14:08.370Z,18.77
2023-02-15T08:16:38.142Z,20.50
2023-02-15T08:19:08.705Z,19.30
2023-02-15T08:21:38.193Z,19.47
2023-02-15T08:24:06.897Z,12.80
2023-02-15T08:26:35.452Z,17.37
2023-02-15T08:29:03.488Z,16.50
2023-02-15T08:31:32.477Z,16.87
2023-02-15T08:34:00.319Z,13.73
2023-02-15T08:36:30.653Z,20.93
2023-02-15T08:39:00.451Z,19.73
2023-02-15T08:41:30.281Z,18.70
2023-02-15T08:44:00.208Z,20.70
2023-02-15T08:46:30.144Z,16.40
2023-02-15T08:48:59.977Z,20.60
2023-02-15T08:51:33.234Z,21.10
2023-02-15T08:54:03.840Z,27.53
2023-02-15T08:56:35.252Z,21.80
2023-02-15T08:59:03.153Z,20.83
2023-02-15T09:01:32.412Z,24.50
2023-02-15T09:04:02.789Z,26.90
2023-02-15T09:06:30.482Z,22.63
2023-02-15T09:08:58.623Z,19.20
2023-02-15T09:11:29.770Z,23.20
2023-02-15T09:13:59.999Z,21.13
2023-02-15T09:16:29.865Z,23.50
2023-02-15T09:18:58.768Z,23.53
2023-02-15T09:21:28.101Z,26.50
2023-02-15T09:23:58.586Z,19.90
2023-02-15T09:26:26.971Z,22.87
2023-02-15T09:28:57.103Z,22.37
2023-02-15T09:31:28.410Z,27.47
2023-02-15T09:33:56.775Z,20.17
2023-02-15T09:36:27.660Z,25.70
2023-02-15T09:38:58.535Z,29.20
2023-02-15T09:41:42.406Z,24.53
2023-02-15T09:44:23.142Z,26.33
2023-02-15T09:47:06.816Z,31.83
2023-02-15T09:49:42.747Z,28.57
2023-02-15T09:52:26.833Z,27.53
2023-02-15T09:55:08.134Z,31.17
2023-02-15T09:57:48.926Z,31.50
2023-02-15T10:00:25.721Z,33.47
2023-02-15T10:03:12.779Z,31.90
2023-02-15T10:05:53.799Z,27.67
2023-02-15T10:08:39.021Z,27.53
2023-02-15T10:11:33.349Z,32.73
2023-02-15T10:14:14.650Z,30.27
2023-02-15T10:16:53.015Z,37.73
2023-02-15T10:19:35.341Z,33.37
2023-02-15T10:22:15.185Z,31.70
2023-02-15T10:25:08.138Z,30.73
2023-02-15T10:27:41.611Z,36.47
2023-02-15T10:30:12.809Z,30.97
2023-02-15T10:32:49.871Z,29.33
2023-02-15T10:35:24.747Z,23.57
2023-02-15T10:38:05.538Z,31.27
2023-02-15T10:40:47.954Z,27.97
2023-02-15T10:43:39.790Z,33.13
2023-02-15T10:46:18.844Z,26.93
2023-02-15T10:49:17.358Z,34.10
2023-02-15T10:51:59.897Z,35.00
2023-02-15T10:54:39.913Z,27.57
2023-02-15T10:57:21.346Z,31.67
2023-02-15T11:00:05.425Z,25.30
2023-02-15T11:02:47.511Z,25.70
2023-02-15T11:05:36.177Z,28.50
2023-02-15T11:08:19.229Z,30.43
2023-02-15T11:10:53.572Z,31.40
2023-02-15T11:13:28.422Z,28.60
2023-02-15T11:16:01.966Z,21.43
2023-02-15T11:18:34.704Z,24.47
2023-02-15T11:21:06.299Z,19.07
2023-02-15T11:23:37.520Z,17.23
2023-02-15T11:26:11.417Z,19.33
2023-02-15T11:28:44.868Z,17.60
2023-02-15T11:31:19.383Z,21.43
2023-02-15T11:33:51.256Z,20.30
2023-02-15T11:36:23.344Z,20.83
2023-02-15T11:38:56.315Z,17.47
2023-02-15T11:41:29.157Z,15.23
2023-02-15T11:44:04.186Z,26.90
2023-02-15T11:46:31.998Z,18.30
2023-02-15T11:49:00.231Z,19.63
2023-02-15T11:51:29.749Z,20.80
2023-02-15T11:53:58.241Z,16.50
2023-02-15T11:56:27.581Z,16.63
2023-02-15T11:59:00.401Z,19.80
2023-02-15T12:01:33.873Z,19.03
2023-02-15T12:04:06.644Z,19.73
2023-02-15T12:06:36.046Z,19.73
2023-02-15T12:09:09.246Z,16.00
2023-02-15T12:11:39.180Z,16.00
2023-02-15T12:14:10.254Z,18.60
2023-02-15T12:16:44.929Z,17.27
2023-02-15T12:19:25.598Z,21.90
2023-02-15T12:21:54.721Z,15.43
2023-02-15T12:24:24.886Z,22.23
2023-02-15T12:27:00.911Z,19.23
2023-02-15T12:29:32.636Z,20.10
2023-02-15T12:32:01.353Z,17.90
2023-02-15T12:34:32.739Z,21.57
2023-02-15T12:37:04.497Z,20.57
2023-02-15T12:39:33.754Z,18.43
2023-02-15T12:42:05.699Z,15.30
2023-02-15T12:44:36.887Z,18.70
2023-02-15T12:47:06.624Z,19.70
2023-02-15T12:49:35.950Z,18.93
2023-02-15T12:52:07.742Z,14.47
2023-02-15T12:54:39.512Z,33.93
2023-02-15T12:57:24.044Z,21.23
2023-02-15T12:59:55.165Z,17.53
2023-02-15T13:02:27.214Z,21.97
2023-02-15T13:04:58.374Z,24.53
2023-02-15T13:07:32.238Z,16.73
2023-02-15T13:10:00.331Z,21.87
2023-02-15T13:12:31.522Z,18.53
2023-02-15T13:15:03.262Z,22.23
2023-02-15T13:17:34.718Z,19.40
2023-02-15T13:20:05.925Z,26.27
2023-02-15T13:22:42.915Z,16.30
2023-02-15T13:25:16.244Z,15.73
2023-02-15T13:27:46.173Z,19.77
2023-02-15T13:30:25.763Z,18.73
2023-02-15T13:32:56.735Z,21.50
2023-02-15T13:35:27.843Z,20.30
2023-02-15T13:38:09.301Z,17.60
2023-02-15T13:40:43.070Z,20.47
2023-02-15T13:43:27.770Z,19.50
2023-02-15T13:46:09.931Z,18.50
2023-02-15T13:48:51.033Z,20.27
2023-02-15T13:51:24.215Z,16.33
2023-02-15T13:54:06.728Z,19.87
2023-02-15T13:56:46.580Z,17.90
2023-02-15T13:59:33.550Z,15.73
2023-02-15T14:02:29.092Z,19.30
2023-02-15T14:05:23.839Z,17.43
2023-02-15T14:08:08.559Z,21.23
2023-02-15T14:10:45.474Z,17.27
2023-02-15T14:13:38.071Z,16.67
2023-02-15T14:16:12.524Z,18.50
2023-02-15T14:18:48.057Z,20.40
2023-02-15T14:21:19.782Z,15.47
2023-02-15T14:23:59.579Z,18.83
2023-02-15T14:26:39.075Z,16.63
2023-02-15T14:29:20.171Z,16.90
2023-02-15T14:31:51.085Z,15.40
2023-02-15T14:34:25.541Z,14.10
2023-02-15T14:36:54.947Z,17.17
2023-02-15T14:39:50.382Z,18.30
2023-02-15T14:42:26.959Z,20.60
2023-02-15T14:45:02.461Z,16.20
2023-02-15T14:47:35.686Z,14.27
2023-02-15T14:50:39.150Z,16.30
2023-02-15T14:53:27.079Z,21.70
2023-02-15T14:56:19.392Z,16.20
2023-02-15T14:59:15.244Z,13.87
2023-02-15T15:01:44.309Z,17.57
2023-02-15T15:04:15.952Z,20.43
2023-02-15T15:06:45.586Z,18.37
2023-02-15T15:09:16.194Z,15.10
2023-02-15T15:11:48.485Z,22.23
2023-02-15T15:14:41.507Z,20.17
2023-02-15T15:17:13.317Z,19.13
2023-02-15T15:20:08.252Z,17.87
2023-02-15T15:22:38.267Z,17.10
2023-02-15T15:25:11.271Z,19.60
2023-02-15T15:27:51.875Z,14.77
2023-02-15T15:31:02.533Z,20.03
2023-02-15T15:33:57.587Z,16.00
2023-02-15T15:37:11.196Z,17.77
2023-02-15T15:40:15.054Z,15.43
2023-02-15T15:43:00.342Z,14.17
2023-02-15T15:45:51.007Z,15.87
2023-02-15T15:48:34.287Z,16.27
2023-02-15T15:51:06.561Z,17.40
2023-02-15T15:53:42.111Z,18.03
2023-02-15T15:56:17.272Z,17.03
2023-02-15T15:58:48.451Z,20.27
2023-02-15T16:01:16.005Z,18.00
2023-02-15T16:03:52.853Z,17.80
2023-02-15T16:06:31.562Z,17.17
2023-02-15T16:08:59.143Z,13.50
2023-02-15T16:11:31.729Z,18.20
2023-02-15T16:13:59.247Z,15.97
2023-02-15T16:16:30.688Z,16.07
2023-02-15T16:19:00.436Z,20.80
2023-02-15T16:21:32.549Z,22.27
2023-02-15T16:24:20.136Z,15.53
2023-02-15T16:27:18.997Z,19.13
2023-02-15T16:29:46.619Z,14.97
2023-02-15T16:32:20.905Z,14.70
2023-02-15T16:34:56.874Z,15.87
2023-02-15T16:37:27.851Z,16.10
2023-02-15T16:39:56.549Z,17.80
2023-02-15T16:42:26.350Z,19.57
2023-02-15T16:44:57.936Z,15.67
2023-02-15T16:47:27.917Z,18.83
2023-02-15T16:49:59.655Z,14.60
2023-02-15T16:52:28.966Z,19.83
2023-02-15T16:54:59.850Z,16.20
2023-02-15T16:57:32.620Z,16.40
2023-02-15T17:00:04.388Z,13.53
2023-02-15T17:02:54.579Z,15.10
2023-02-15T17:05:22.078Z,14.10
2023-02-15T17:08:14.051Z,14.93
2023-02-15T17:10:44.060Z,15.00
2023-02-15T17:13:14.771Z,17.63
2023-02-15T17:15:44.241Z,15.93
2023-02-15T17:18:16.671Z,19.63
2023-02-15T17:20:45.638Z,16.57
2023-02-15T17:23:30.552Z,18.60
2023-02-15T17:25:59.085Z,16.20
2023-02-15T17:28:31.509Z,17.33
2023-02-15T17:31:00.335Z,18.27
2023-02-15T17:33:39.820Z,13.73
2023-02-15T17:36:11.173Z,19.73
2023-02-15T17:38:40.503Z,14.80
2023-02-15T17:41:08.198Z,14.97
2023-02-15T17:43:37.405Z,14.93
2023-02-15T17:46:05.306Z,15.07
2023-02-15T17:48:35.293Z,14.60
2023-02-15T17:51:05.117Z,17.47
2023-02-15T17:53:33.487Z,17.63
2023-02-15T17:56:00.079Z,18.73
2023-02-15T17:58:27.565Z,15.03
2023-02-15T18:01:17.468Z,18.97
2023-02-15T18:04:05.687Z,12.10
2023-02-15T18:06:51.748Z,13.67
2023-02-15T18:09:38.320Z,17.00
2023-02-15T18:12:20.350Z,19.20
2023-02-15T18:14:49.198Z,15.00
2023-02-15T18:17:25.942Z,13.30
2023-02-15T18:19:54.087Z,17.30
2023-02-15T18:22:22.427Z,22.43
2023-02-15T18:24:50.432Z,18.50
2023-02-15T18:27:17.970Z,17.47
2023-02-15T18:29:45.630Z,20.43
2023-02-15T18:32:18.715Z,16.67
2023-02-15T18:34:49.435Z,16.80
2023-02-15T18:37:20.450Z,13.57
2023-02-15T18:39:49.954Z,13.57
2023-02-15T18:42:21.758Z,14.20
2023-02-15T18:44:49.783Z,19.70
2023-02-15T18:47:17.296Z,13.30
2023-02-15T18:49:44.826Z,12.97
2023-02-15T18:52:17.769Z,15.63
2023-02-15T18:54:46.103Z,17.07
2023-02-15T18:57:16.427Z,14.77
2023-02-15T18:59:44.170Z,14.80
2023-02-15T19:02:14.320Z,18.67
2023-02-15T19:04:41.942Z,18.10
2023-02-15T19:07:19.466Z,19.20
2023-02-15T19:09:51.027Z,16.80
2023-02-15T19:12:19.436Z,15.63
2023-02-15T19:14:47.337Z,15.77
2023-02-15T19:17:16.811Z,12.83
2023-02-15T19:19:44.687Z,17.57
2023-02-15T19:22:15.116Z,20.73
2023-02-15T19:24:46.300Z,17.27
2023-02-15T19:27:22.227Z,17.97
2023-02-15T19:29:50.436Z,15.20
2023-02-15T19:32:18.035Z,17.97
2023-02-15T19:34:45.707Z,21.90
2023-02-15T19:37:25.113Z,16.23
2023-02-15T19:39:54.485Z,14.03
2023-02-15T19:42:24.825Z,15.70
2023-02-15T19:44:54.375Z,13.87
2023-02-15T19:47:22.782Z,13.90
2023-02-15T19:49:50.590Z,16.27
2023-02-15T19:52:20.932Z,15.53
2023-02-15T19:54:50.007Z,16.20
2023-02-15T19:57:19.315Z,14.10
2023-02-15T19:59:46.907Z,14.43
2023-02-15T20:02:15.598Z,14.43
2023-02-15T20:04:43.394Z,15.30
2023-02-15T20:07:27.099Z,14.03
2023-02-15T20:09:54.804Z,14.37
2023-02-15T20:12:25.750Z,17.77
2023-02-15T20:14:53.965Z,14.90
2023-02-15T20:17:21.545Z,15.13
2023-02-15T20:19:49.477Z,13.97
2023-02-15T20:22:24.287Z,14.13
2023-02-15T20:24:55.374Z,18.23
2023-02-15T20:27:24.994Z,14.77
2023-02-15T20:29:56.600Z,18.17
2023-02-15T20:32:24.385Z,13.83
2023-02-15T20:34:52.059Z,13.13
2023-02-15T20:37:23.498Z,15.03
2023-02-15T20:39:52.077Z,14.93
2023-02-15T20:42:19.832Z,13.20
2023-02-15T20:44:48.711Z,18.47
2023-02-15T20:47:30.635Z,14.77
2023-02-15T20:49:59.126Z,12.83
2023-02-15T20:52:26.755Z,17.33
2023-02-15T20:54:54.365Z,14.80
2023-02-15T20:57:22.071Z,12.93
2023-02-15T20:59:50.912Z,15.53
2023-02-15T21:02:22.845Z,16.50
2023-02-15T21:04:51.157Z,15.00
2023-02-15T21:07:21.580Z,20.37
2023-02-15T21:09:49.824Z,13.43
2023-02-15T21:12:19.253Z,18.00
2023-02-15T21:14:46.919Z,11.17
2023-02-15T21:17:18.384Z,18.53
2023-02-15T21:19:46.320Z,22.00
2023-02-15T21:22:15.355Z,16.63
2023-02-15T21:24:50.445Z,15.70
2023-02-15T21:27:23.996Z,13.23
2023-02-15T21:29:51.570Z,17.07
2023-02-15T21:32:20.461Z,15.73
2023-02-15T21:34:47.998Z,17.50
2023-02-15T21:37:28.648Z,16.93
2023-02-15T21:39:56.356Z,12.03
2023-02-15T21:42:41.381Z,15.70
2023-02-15T21:45:32.890Z,17.50
2023-02-15T21:48:01.855Z,16.10
2023-02-15T21:50:47.417Z,19.07
2023-02-15T21:53:21.753Z,14.60
2023-02-15T21:55:49.632Z,14.67
2023-02-15T21:58:21.043Z,17.03
2023-02-15T22:00:49.803Z,15.63
2023-02-15T22:03:18.706Z,20.63
2023-02-15T22:05:46.303Z,21.67
2023-02-15T22:08:14.888Z,15.73
2023-02-15T22:10:43.532Z,16.50
2023-02-15T22:13:15.853Z,11.97
2023-02-15T22:15:46.465Z,15.43
2023-02-15T22:18:24.963Z,13.63
2023-02-15T22:20:53.636Z,21.43
2023-02-15T22:23:23.378Z,16.00
2023-02-15T22:25:55.598Z,17.00
2023-02-15T22:28:28.553Z,12.90
2023-02-15T22:30:56.045Z,17.47
2023-02-15T22:33:27.463Z,14.43
2023-02-15T22:35:55.282Z,14.10
2023-02-15T22:38:22.757Z,15.37
2023-02-15T22:40:52.411Z,17.00
2023-02-15T22:43:28.784Z,16.93
2023-02-15T22:46:00.460Z,14.33
2023-02-15T22:48:29.506Z,16.97
2023-02-15T22:50:57.112Z,16.83
2023-02-15T22:53:24.760Z,21.97
2023-02-15T22:55:53.179Z,18.83
2023-02-15T22:58:24.556Z,17.00
2023-02-15T23:00:52.397Z,18.73
2023-02-15T23:03:22.887Z,18.20
2023-02-15T23:05:52.633Z,18.73
2023-02-15T23:08:20.409Z,15.50
2023-02-15T23:10:54.166Z,15.03
2023-02-15T23:13:25.907Z,19.40
2023-02-15T23:15:56.916Z,20.33
2023-02-15T23:18:28.019Z,23.20
2023-02-15T23:20:59.083Z,21.90
2023-02-15T23:23:33.379Z,18.50
2023-02-15T23:26:03.197Z,16.63
2023-02-15T23:28:35.452Z,24.93
2023-02-15T23:31:03.995Z,13.60
2023-02-15T23:33:34.855Z,18.60
2023-02-15T23:36:04.963Z,12.70
2023-02-15T23:38:33.732Z,23.77
2023-02-15T23:41:21.160Z,15.87
2023-02-15T23:43:52.728Z,19.50
2023-02-15T23:46:26.762Z,22.17
2023-02-15T23:48:54.755Z,17.67
2023-02-15T23:51:28.314Z,20.00
2023-02-15T23:53:55.848Z,17.77
2023-02-15T23:56:23.526Z,15.23
2023-02-15T23:58:51.440Z,17.73
